Time;durP1;ratioP1;P1;durP2;ratioP2;P2;SDS_P1;SDS_P2;PMS_P1;PMS_P2;Temp;Humidity;BMP_temperature;BMP_pressure;BME280_temperature;BME280_humidity;BME280_pressure;Samples;Min_cycle;Max_cycle;Signal;HPM_P1;HPM_P2
2023/08/11 00:01:21;;;;;;;4.63;2.67;;;;;;;15.73;49.64;102046.88;4988769;28;20037;-68
2023/08/11 00:03:47;;;;;;;5.70;2.55;;;;;;;15.70;49.66;102036.47;4990859;28;20100;-68
2023/08/11 00:06:13;;;;;;;3.38;2.70;;;;;;;15.75;49.59;102037.09;4992966;28;20342;-67
2023/08/11 00:08:40;;;;;;;6.78;2.30;;;;;;;15.73;49.62;102036.34;4985965;28;20512;-67
2023/08/11 00:11:06;;;;;;;6.18;2.15;;;;;;;15.73;49.64;102036.34;4995886;28;20112;-66
2023/08/11 00:13:34;;;;;;;3.53;2.15;;;;;;;15.77;49.50;102028.25;4991085;28;20496;-67
2023/08/11 00:16:03;;;;;;;4.70;2.53;;;;;;;15.82;49.31;102035.94;4992374;28;20091;-66
2023/08/11 00:18:28;;;;;;;3.88;2.47;;;;;;;15.75;49.49;102035.34;4989244;28;20069;-67
2023/08/11 00:20:54;;;;;;;3.33;2.58;;;;;;;15.70;49.76;102034.69;4991401;28;20041;-67
2023/08/11 00:23:20;;;;;;;3.85;2.47;;;;;;;15.71;49.62;102035.56;4989892;28;20042;-68
2023/08/11 00:25:45;;;;;;;8.15;3.28;;;;;;;15.71;49.68;102032.91;4989120;28;20044;-68
2023/08/11 00:28:10;;;;;;;6.70;2.63;;;;;;;15.74;49.88;102038.03;4988665;28;20044;-74
2023/08/11 00:30:36;;;;;;;4.13;2.15;;;;;;;15.85;49.67;102037.59;4973493;28;20041;-74
2023/08/11 00:33:04;;;;;;;3.05;1.90;;;;;;;15.90;49.46;102040.88;4994391;28;20061;-75
2023/08/11 00:35:30;;;;;;;5.10;2.03;;;;;;;15.90;49.36;102044.34;4984405;28;20034;-75
2023/08/11 00:37:55;;;;;;;6.75;2.83;;;;;;;15.91;49.30;102035.53;4990253;28;20038;-74
2023/08/11 00:40:22;;;;;;;5.05;1.92;;;;;;;15.88;49.47;102038.28;4987903;28;20107;-74
2023/08/11 00:42:49;;;;;;;5.00;2.40;;;;;;;15.84;49.52;102039.38;4992858;28;20046;-74
2023/08/11 00:45:16;;;;;;;2.83;1.88;;;;;;;15.83;49.55;102036.78;5007430;28;20101;-74
2023/08/11 00:47:42;;;;;;;3.45;1.55;;;;;;;15.71;49.93;102032.91;5004919;28;20040;-74
2023/08/11 00:50:10;;;;;;;2.85;1.80;;;;;;;15.84;49.80;102042.00;4994538;28;20037;-75
2023/08/11 00:52:37;;;;;;;3.70;1.88;;;;;;;15.77;49.78;102037.91;5000228;28;20037;-75
2023/08/11 00:55:03;;;;;;;4.43;1.90;;;;;;;15.74;49.66;102041.53;4996972;28;20033;-76
2023/08/11 00:57:29;;;;;;;6.88;2.30;;;;;;;15.72;49.75;102032.84;4991112;28;20088;-75
2023/08/11 00:59:56;;;;;;;4.72;2.00;;;;;;;15.77;49.81;102032.63;4994548;28;20315;-76
2023/08/11 01:02:21;;;;;;;3.22;1.90;;;;;;;15.72;49.93;102030.19;4988533;28;20531;-77
2023/08/11 01:04:49;;;;;;;4.03;1.67;;;;;;;15.67;49.88;102026.06;4992332;28;20061;-75
2023/08/11 01:07:34;;;;;;;4.53;2.47;;;;;;;15.66;49.78;102029.59;4991064;28;20466;-75
2023/08/11 01:10:15;;;;;;;3.83;2.03;;;;;;;15.71;49.83;102025.88;4993953;28;20081;-76
2023/08/11 01:13:17;;;;;;;4.93;2.15;;;;;;;15.72;49.46;102026.72;4985298;28;20460;-76
2023/08/11 01:15:53;;;;;;;5.45;2.95;;;;;;;15.61;49.71;102027.16;4989891;28;20131;-75
2023/08/11 01:18:22;;;;;;;5.18;2.00;;;;;;;15.63;50.08;102024.47;4988379;28;20106;-76
2023/08/11 01:20:53;;;;;;;5.78;1.90;;;;;;;15.67;49.80;102028.69;4985581;28;20090;-67
2023/08/11 01:23:20;;;;;;;5.10;2.70;;;;;;;15.62;49.86;102025.38;5003178;28;20099;-67
2023/08/11 01:25:47;;;;;;;9.55;2.47;;;;;;;15.62;49.81;102028.03;4985702;28;20065;-66
2023/08/11 01:28:13;;;;;;;6.57;1.88;;;;;;;15.58;50.15;102028.16;5009515;28;20037;-67
2023/08/11 01:30:39;;;;;;;4.75;2.17;;;;;;;15.60;50.04;102025.47;4985748;28;20100;-67
2023/08/11 01:33:04;;;;;;;6.55;2.17;;;;;;;15.58;50.16;102022.91;4966861;28;20065;-67
2023/08/11 01:35:30;;;;;;;2.85;1.92;;;;;;;15.62;49.92;102018.34;4990449;28;20557;-68
2023/08/11 01:37:55;;;;;;;4.97;2.22;;;;;;;15.80;49.90;102016.69;4977699;28;20561;-67
2023/08/11 01:40:21;;;;;;;4.35;2.00;;;;;;;15.72;50.20;102011.75;4989806;28;20034;-69
2023/08/11 01:42:47;;;;;;;4.93;2.03;;;;;;;15.75;50.08;102009.00;4990292;28;20038;-70
2023/08/11 01:45:15;;;;;;;5.03;2.38;;;;;;;15.79;50.10;102009.69;4992244;28;20419;-70
2023/08/11 01:47:45;;;;;;;6.50;2.03;;;;;;;15.87;49.73;102004.09;4988778;28;20037;-70
2023/08/11 01:50:13;;;;;;;3.00;2.15;;;;;;;15.86;49.45;102007.66;4993291;28;20038;-70
2023/08/11 01:52:45;;;;;;;4.70;2.38;;;;;;;15.84;49.87;101996.31;4988986;28;20125;-68
2023/08/11 01:55:13;;;;;;;3.78;2.20;;;;;;;15.80;49.89;101996.47;5006989;28;20132;-69
2023/08/11 01:57:40;;;;;;;4.72;2.08;;;;;;;15.81;50.01;101992.03;4966841;28;20539;-68
2023/08/11 02:00:12;;;;;;;4.13;2.38;;;;;;;15.78;50.16;101994.81;4989549;28;20472;-68
2023/08/11 02:02:43;;;;;;;8.35;2.67;;;;;;;15.86;50.05;101995.31;5000688;28;20403;-68
2023/08/11 02:05:11;;;;;;;3.65;2.38;;;;;;;15.89;49.88;101989.06;5007422;28;20034;-68
2023/08/11 02:07:38;;;;;;;6.13;1.77;;;;;;;15.89;50.16;101989.94;4984494;28;20053;-69
2023/08/11 02:10:08;;;;;;;2.83;2.45;;;;;;;15.84;50.05;101985.78;4994018;28;20488;-68
2023/08/11 02:12:34;;;;;;;3.65;1.80;;;;;;;15.85;50.34;101998.03;4983856;28;20128;-66
2023/08/11 02:15:00;;;;;;;8.38;2.35;;;;;;;15.88;50.04;101998.75;5009668;28;20041;-75
2023/08/11 02:17:26;;;;;;;5.97;2.92;;;;;;;15.86;50.34;101994.47;4987227;28;20046;-75
2023/08/11 02:19:53;;;;;;;3.78;2.72;;;;;;;15.93;49.77;101991.50;4987691;28;20053;-76
2023/08/11 02:22:19;;;;;;;9.68;2.17;;;;;;;15.96;49.91;101991.34;4990944;28;20337;-74
2023/08/11 02:24:44;;;;;;;4.18;2.85;;;;;;;15.85;49.88;101985.72;4988753;28;20037;-75
2023/08/11 02:27:13;;;;;;;4.28;2.47;;;;;;;15.94;49.43;101987.94;4993783;28;20406;-75
2023/08/11 02:29:38;;;;;;;3.55;2.55;;;;;;;15.88;49.70;101982.91;4985722;28;20095;-69
2023/08/11 02:32:04;;;;;;;4.03;2.53;;;;;;;15.91;49.59;101981.97;4987074;28;20657;-70
2023/08/11 02:34:30;;;;;;;3.35;2.17;;;;;;;15.94;49.64;101987.94;4990692;28;20026;-69
2023/08/11 02:36:56;;;;;;;5.40;3.17;;;;;;;15.91;50.04;101988.06;4970798;28;20554;-71
2023/08/11 02:39:22;;;;;;;5.85;2.28;;;;;;;15.95;49.66;101987.03;4986180;28;20030;-71
2023/08/11 02:41:47;;;;;;;3.65;2.40;;;;;;;15.94;49.84;101987.06;4970147;28;20057;-71
2023/08/11 02:44:13;;;;;;;3.60;2.40;;;;;;;16.00;49.86;101977.13;5007671;28;20080;-70
2023/08/11 02:46:39;;;;;;;4.47;3.08;;;;;;;16.02;49.69;101978.84;4980926;28;20420;-70
2023/08/11 02:49:04;;;;;;;5.30;2.35;;;;;;;15.98;49.81;101981.59;4992795;28;20029;-68
2023/08/11 02:51:30;;;;;;;3.65;2.20;;;;;;;15.91;50.24;101980.16;4988555;28;20056;-67
2023/08/11 02:53:56;;;;;;;2.60;2.38;;;;;;;15.94;50.00;101985.28;4985017;28;20034;-71
2023/08/11 02:56:21;;;;;;;7.13;3.20;;;;;;;15.86;50.20;101976.84;4990879;28;20064;-68
2023/08/11 02:58:48;;;;;;;4.60;2.75;;;;;;;15.85;49.99;101980.44;5005283;28;20060;-65
2023/08/11 03:01:14;;;;;;;3.35;2.83;;;;;;;15.80;50.23;101985.91;5004578;28;20084;-67
2023/08/11 03:03:42;;;;;;;5.40;2.28;;;;;;;15.83;50.67;101991.97;4975610;28;20555;-67
2023/08/11 03:06:10;;;;;;;11.27;3.03;;;;;;;15.75;50.80;101984.41;4989976;28;20318;-68
2023/08/11 03:08:39;;;;;;;7.60;3.60;;;;;;;15.69;50.89;101984.69;4998860;28;20125;-67
2023/08/11 03:11:05;;;;;;;9.13;3.08;;;;;;;15.73;50.70;101991.53;4991963;28;20026;-67
2023/08/11 03:13:34;;;;;;;6.28;3.05;;;;;;;15.68;51.03;101996.13;4984105;28;20038;-67
2023/08/11 03:16:00;;;;;;;3.13;2.35;;;;;;;15.80;50.76;102000.88;4988821;28;20424;-67
2023/08/11 03:18:27;;;;;;;7.97;2.90;;;;;;;15.86;50.44;101990.03;4987597;28;20104;-68
2023/08/11 03:20:55;;;;;;;3.95;3.25;;;;;;;15.87;50.44;101986.50;4985683;28;20697;-67
2023/08/11 03:23:21;;;;;;;6.88;3.40;;;;;;;15.78;50.38;101981.63;4990821;28;20508;-67
2023/08/11 03:25:49;;;;;;;7.47;3.58;;;;;;;15.70;50.43;101981.13;5004699;28;20065;-69
2023/08/11 03:28:17;;;;;;;6.73;3.37;;;;;;;15.66;50.70;101971.63;4986253;28;20042;-65
2023/08/11 03:30:43;;;;;;;5.60;2.78;;;;;;;15.56;51.00;101977.31;4990392;28;20026;-65
2023/08/11 03:33:08;;;;;;;7.18;2.70;;;;;;;15.61;50.76;101979.75;4989257;28;20034;-65
2023/08/11 03:35:41;;;;;;;7.22;3.05;;;;;;;15.51;51.03;101981.09;4989823;28;20032;-66
2023/08/11 03:38:07;;;;;;;5.90;3.58;;;;;;;15.56;51.01;101979.94;4992147;28;20033;-65
2023/08/11 03:40:33;;;;;;;7.05;3.75;;;;;;;15.44;51.15;101991.03;4989726;28;20041;-65
2023/08/11 03:43:00;;;;;;;6.90;3.92;;;;;;;15.40;51.69;101986.81;4976849;28;20124;-66
2023/08/11 03:45:26;;;;;;;4.57;3.60;;;;;;;15.42;51.72;101979.69;4973828;28;20030;-69
2023/08/11 03:47:53;;;;;;;4.28;2.92;;;;;;;15.45;51.20;101984.81;4991394;28;20869;-67
2023/08/11 03:50:21;;;;;;;6.90;3.75;;;;;;;15.40;51.27;101986.81;4991638;28;20045;-68
2023/08/11 03:52:47;;;;;;;4.43;3.40;;;;;;;15.26;51.53;101978.63;4987923;28;20037;-68
2023/08/11 03:55:13;;;;;;;5.45;3.25;;;;;;;15.23;51.64;101981.41;4986515;28;20057;-69
2023/08/11 03:57:39;;;;;;;6.70;2.85;;;;;;;15.12;51.77;101971.28;4969931;28;20148;-69
2023/08/11 04:00:09;;;;;;;7.28;4.78;;;;;;;15.03;51.86;101977.78;5007097;28;20029;-70
2023/08/11 04:02:38;;;;;;;4.88;3.55;;;;;;;14.93;52.08;101981.72;4988421;28;20053;-72
2023/08/11 04:05:06;;;;;;;9.25;4.25;;;;;;;14.79;52.36;101976.16;4974054;28;20464;-69
2023/08/11 04:07:31;;;;;;;6.25;4.10;;;;;;;14.72;52.64;101978.16;4990120;28;20065;-69
2023/08/11 04:09:58;;;;;;;7.80;3.97;;;;;;;14.61;52.88;101969.84;4990823;28;20042;-69
2023/08/11 04:12:24;;;;;;;5.75;4.10;;;;;;;14.56;53.24;101973.50;4976555;28;20180;-69
2023/08/11 04:14:49;;;;;;;6.22;4.18;;;;;;;14.47;53.47;101975.66;4988703;28;20120;-70
2023/08/11 04:17:16;;;;;;;5.95;3.88;;;;;;;14.52;53.60;101981.59;4993591;28;20095;-71
2023/08/11 04:19:42;;;;;;;9.77;4.57;;;;;;;14.55;53.31;101973.59;4990658;28;20026;-70
2023/08/11 04:22:08;;;;;;;10.73;4.60;;;;;;;14.48;53.49;101972.13;5006748;28;20460;-71
2023/08/11 04:24:34;;;;;;;6.47;5.30;;;;;;;14.43;53.64;101976.69;5004956;28;20080;-70
2023/08/11 04:27:00;;;;;;;7.40;5.15;;;;;;;14.51;53.68;101979.88;4992103;28;20029;-70
2023/08/11 04:29:26;;;;;;;10.18;5.25;;;;;;;14.49;53.77;101976.47;4977521;28;20528;-69
2023/08/11 04:31:52;;;;;;;7.07;4.50;;;;;;;14.48;53.50;101974.75;4987766;28;20116;-69
2023/08/11 04:34:19;;;;;;;5.90;3.45;;;;;;;14.52;53.67;101984.22;4989795;28;20444;-66
2023/08/11 04:36:46;;;;;;;8.52;5.15;;;;;;;14.53;53.38;101983.31;4972325;28;20217;-66
2023/08/11 04:39:12;;;;;;;11.63;5.97;;;;;;;14.53;53.69;101981.53;5010429;28;20030;-67
2023/08/11 04:41:39;;;;;;;5.82;4.47;;;;;;;14.60;53.42;101982.16;4987696;28;20042;-70
2023/08/11 04:44:04;;;;;;;7.38;3.88;;;;;;;14.59;53.39;101988.34;4983698;28;20100;-66
2023/08/11 04:46:31;;;;;;;8.20;5.45;;;;;;;14.65;53.28;101988.06;4992077;28;20112;-66
2023/08/11 04:48:57;;;;;;;7.45;5.10;;;;;;;14.62;52.96;101988.22;4986302;28;20084;-65
2023/08/11 04:51:23;;;;;;;9.70;6.10;;;;;;;14.65;53.28;101981.97;4986629;28;20029;-65
2023/08/11 04:53:49;;;;;;;6.32;4.82;;;;;;;14.69;53.21;101986.19;4988431;28;20107;-66
2023/08/11 04:56:15;;;;;;;6.05;5.22;;;;;;;14.70;53.60;101980.88;4974074;28;20467;-68
2023/08/11 04:58:41;;;;;;;7.68;6.10;;;;;;;14.69;53.21;101979.16;4987636;28;20041;-71
2023/08/11 05:01:07;;;;;;;10.10;5.65;;;;;;;14.74;53.20;101977.19;4993890;28;20088;-66
2023/08/11 05:03:33;;;;;;;11.93;6.25;;;;;;;14.80;52.82;101972.63;4988536;28;20624;-66
2023/08/11 05:05:59;;;;;;;8.30;6.03;;;;;;;;;;4991449;28;20366;-66
2023/08/11 05:08:24;;;;;;;9.82;6.07;;;;;;;14.79;53.50;101979.66;4989417;28;20052;-66
2023/08/11 05:10:50;;;;;;;5.40;4.93;;;;;;;14.94;53.35;101967.63;4989435;28;20029;-66
2023/08/11 05:13:16;;;;;;;10.18;6.38;;;;;;;15.17;52.80;101979.84;4989117;28;20415;-67
2023/08/11 05:15:42;;;;;;;9.70;6.82;;;;;;;15.69;51.52;101984.69;5007105;28;20626;-70
2023/08/11 05:18:07;;;;;;;5.97;5.35;;;;;;;16.13;51.12;101977.44;4990581;28;20509;-67
2023/08/11 05:20:33;;;;;;;8.65;5.57;;;;;;;17.19;48.47;101971.47;4990703;28;20116;-67
2023/08/11 05:22:59;;;;;;;5.43;4.15;;;;;;;17.02;48.17;101974.97;4990164;28;20530;-66
2023/08/11 05:25:25;;;;;;;9.77;6.47;;;;;;;16.59;48.31;101977.03;4991348;28;20113;-64
2023/08/11 05:27:51;;;;;;;10.20;5.03;;;;;;;16.56;48.90;101974.56;4980596;28;20062;-70
2023/08/11 05:30:17;;;;;;;5.88;4.97;;;;;;;16.50;49.72;101980.97;4989614;28;20385;-66
2023/08/11 05:32:42;;;;;;;9.35;6.15;;;;;;;17.38;48.75;101974.91;4991873;28;20118;-67
2023/08/11 05:35:08;;;;;;;6.75;5.55;;;;;;;19.59;42.51;101974.97;4991022;28;20087;-66
2023/08/11 05:37:34;;;;;;;6.28;4.30;;;;;;;21.80;39.49;101970.25;4988442;28;21315;-66
2023/08/11 05:40:00;;;;;;;7.30;4.63;;;;;;;23.07;36.03;101976.06;5005794;28;20030;-66
2023/08/11 05:42:25;;;;;;;6.57;4.20;;;;;;;22.58;35.72;101985.06;4987152;28;20080;-66
2023/08/11 05:44:51;;;;;;;4.63;4.25;;;;;;;21.94;36.01;101979.94;4988392;28;20117;-68
2023/08/11 05:47:16;;;;;;;8.43;4.15;;;;;;;22.54;36.34;101981.78;4986754;28;20168;-66
2023/08/11 05:49:42;;;;;;;10.95;4.43;;;;;;;21.72;37.27;101981.44;4983380;28;20033;-67
2023/08/11 05:52:09;;;;;;;10.40;4.05;;;;;;;23.94;33.21;101976.47;4982422;28;20018;-67
2023/08/11 05:54:44;;;;;;;5.30;3.80;;;;;;;23.91;33.52;101981.22;4985132;28;20034;-67
2023/08/11 05:57:10;;;;;;;3.90;2.92;;;;;;;25.76;30.05;101966.69;4966790;28;20044;-66
2023/08/11 05:59:38;;;;;;;8.75;3.35;;;;;;;26.42;29.80;101979.53;4987237;28;20033;-67
2023/08/11 06:02:06;;;;;;;3.17;2.47;;;;;;;26.51;29.26;101965.28;4986340;28;20033;-71
2023/08/11 06:04:32;;;;;;;4.20;3.25;;;;;;;27.04;27.99;101964.84;4990735;28;20038;-69
2023/08/11 06:07:03;;;;;;;4.22;2.92;;;;;;;27.28;27.98;101966.25;5000612;28;20087;-71
2023/08/11 06:09:29;;;;;;;3.38;2.72;;;;;;;27.10;27.57;101966.13;4988221;28;20242;-67
2023/08/11 06:11:55;;;;;;;3.97;2.35;;;;;;;26.66;29.12;101965.75;4979950;28;20037;-69
2023/08/11 06:14:23;;;;;;;3.67;2.72;;;;;;;27.72;27.19;101967.38;4988189;28;20504;-69
2023/08/11 06:16:50;;;;;;;4.07;3.03;;;;;;;28.13;25.96;101969.72;4987824;28;20113;-68
2023/08/11 06:19:32;;;;;;;4.32;1.95;;;;;;;28.18;27.07;101967.41;4982499;28;20049;-68
2023/08/11 06:22:11;;;;;;;;;;;;;;;;;;;;;
2023/08/11 06:24:44;;;;;;;2.15;1.85;;;;;;;29.27;25.02;101961.78;5001479;28;20088;-68
2023/08/11 06:27:24;;;;;;;4.10;1.90;;;;;;;27.68;26.95;101965.97;4979172;28;20152;-68
2023/08/11 06:29:52;;;;;;;2.53;2.15;;;;;;;29.03;25.73;101964.31;4986655;28;20049;-66
2023/08/11 06:32:18;;;;;;;2.88;1.95;;;;;;;28.87;25.50;101962.34;4984974;28;20063;-69
2023/08/11 06:34:51;;;;;;;2.55;1.83;;;;;;;29.82;23.90;101965.97;4983847;28;20044;-67
2023/08/11 06:37:23;;;;;;;4.40;2.42;;;;;;;29.09;24.31;101975.28;4986078;28;20034;-67
2023/08/11 06:39:58;;;;;;;3.40;1.90;;;;;;;29.26;24.35;101970.88;4986416;28;20030;-67
2023/08/11 06:42:28;;;;;;;3.20;1.63;;;;;;;29.05;25.18;101973.06;4997985;28;20539;-68
2023/08/11 06:45:14;;;;;;;3.13;1.75;;;;;;;29.30;24.14;101976.78;4991981;28;22265;-67
2023/08/11 06:47:52;;;;;;;3.67;1.65;;;;;;;30.01;23.55;101969.38;4977169;28;20041;-69
2023/08/11 06:50:20;;;;;;;4.78;1.60;;;;;;;31.46;22.50;101963.31;4964814;28;20491;-70
2023/08/11 06:52:48;;;;;;;3.63;2.30;;;;;;;30.73;22.46;101959.72;4974502;28;20034;-66
2023/08/11 06:55:27;;;;;;;2.22;2.00;;;;;;;30.04;23.44;101969.03;4986520;28;20107;-68
2023/08/11 06:57:58;;;;;;;2.92;1.48;;;;;;;30.52;22.85;101957.50;4976088;28;20117;-67
2023/08/11 07:00:28;;;;;;;5.47;1.70;;;;;;;30.62;22.69;101951.97;4990139;28;20041;-68
2023/08/11 07:02:57;;;;;;;2.67;1.42;;;;;;;30.44;23.48;101956.66;4985406;28;20348;-68
2023/08/11 07:05:35;;;;;;;4.85;1.08;;;;;;;30.88;22.02;101959.03;5000777;28;20057;-66
2023/08/11 07:08:05;;;;;;;1.98;1.13;;;;;;;30.95;22.26;101947.38;4984645;28;20310;-67
2023/08/11 07:10:32;;;;;;;2.40;1.20;;;;;;;31.05;22.41;101951.78;5016980;23;20029;-75
2023/08/11 07:13:03;;;;;;;3.15;0.93;;;;;;;32.08;20.77;101961.72;4971936;28;20761;-76
2023/08/11 07:15:28;;;;;;;2.28;1.58;;;;;;;32.11;20.98;101962.19;4976759;28;20088;-76
2023/08/11 07:17:54;;;;;;;2.00;0.77;;;;;;;32.94;20.44;101955.09;4984025;28;20034;-76
2023/08/11 07:20:20;;;;;;;2.08;1.63;;;;;;;30.87;22.34;101958.22;4984259;28;20508;-76
2023/08/11 07:22:45;;;;;;;4.18;1.10;;;;;;;30.67;22.79;101959.53;4996997;28;20042;-77
2023/08/11 07:25:11;;;;;;;3.35;0.90;;;;;;;31.59;21.78;101955.50;4982542;28;20679;-78
2023/08/11 07:27:36;;;;;;;2.78;1.10;;;;;;;31.26;21.94;101959.31;4991417;28;20121;-76
2023/08/11 07:30:02;;;;;;;3.60;1.25;;;;;;;30.61;22.57;101969.19;4979808;28;20566;-76
2023/08/11 07:32:28;;;;;;;2.63;0.75;;;;;;;31.57;21.57;101957.56;4976606;28;20064;-75
2023/08/11 07:34:53;;;;;;;1.95;0.90;;;;;;;31.55;20.99;101951.47;4979949;28;20041;-77
2023/08/11 07:37:22;;;;;;;2.10;0.73;;;;;;;30.44;23.01;101953.97;4974451;28;20672;-77
2023/08/11 07:39:50;;;;;;;3.95;0.88;;;;;;;31.91;21.61;101948.25;4979559;28;20060;-76
2023/08/11 07:42:16;;;;;;;1.27;0.55;;;;;;;32.55;21.32;101960.72;4980092;28;20054;-78
2023/08/11 07:44:41;;;;;;;3.00;1.10;;;;;;;32.23;20.73;101952.66;4980558;28;20052;-77
2023/08/11 07:47:07;;;;;;;3.97;0.85;;;;;;;32.15;21.28;101949.16;4975156;28;20030;-79
2023/08/11 07:49:33;;;;;;;3.05;0.60;;;;;;;33.23;19.94;101946.16;4997220;28;20071;-77
2023/08/11 07:51:59;;;;;;;5.50;0.70;;;;;;;33.20;20.74;101954.66;4978700;28;20057;-79
2023/08/11 07:54:25;;;;;;;4.88;0.73;;;;;;;31.09;22.07;101953.13;4961219;28;20029;-77
2023/08/11 07:56:50;;;;;;;2.75;0.77;;;;;;;32.22;20.86;101947.41;4960073;28;20065;-77
2023/08/11 07:59:16;;;;;;;2.15;1.38;;;;;;;33.29;20.45;101947.31;4979356;28;20041;-76
2023/08/11 08:01:42;;;;;;;6.22;0.80;;;;;;;33.28;21.44;101955.63;4981445;28;20091;-78
2023/08/11 08:04:07;;;;;;;2.42;0.55;;;;;;;33.05;20.40;101956.53;4977284;28;20042;-77
2023/08/11 08:06:35;;;;;;;2.38;0.60;;;;;;;32.47;21.01;101958.91;4983303;28;20034;-79
2023/08/11 08:09:02;;;;;;;2.13;0.80;;;;;;;31.36;21.85;101952.72;4994951;28;20045;-77
2023/08/11 08:11:28;;;;;;;2.40;0.60;;;;;;;32.00;21.75;101952.59;4980133;28;20169;-76
2023/08/11 08:13:54;;;;;;;2.47;0.65;;;;;;;30.67;22.54;101955.00;4968730;28;20671;-77
2023/08/11 08:16:19;;;;;;;1.83;0.63;;;;;;;31.75;22.20;101960.00;4979515;28;20366;-76
2023/08/11 08:18:48;;;;;;;1.15;0.40;;;;;;;32.47;21.12;101949.94;4980561;28;20057;-78
2023/08/11 08:21:13;;;;;;;2.63;0.77;;;;;;;32.71;20.87;101949.72;4994663;28;20026;-77
2023/08/11 08:23:39;;;;;;;1.80;0.52;;;;;;;32.70;20.99;101949.91;4981796;28;20046;-79
2023/08/11 08:26:04;;;;;;;1.67;0.40;;;;;;;32.43;20.15;101953.03;4981673;28;20041;-77
2023/08/11 08:28:30;;;;;;;2.20;0.70;;;;;;;32.26;21.21;101945.19;4987324;28;20038;-77
2023/08/11 08:30:56;;;;;;;2.97;0.60;;;;;;;32.21;20.88;101953.84;4983004;28;20184;-77
2023/08/11 08:33:21;;;;;;;1.42;0.57;;;;;;;32.38;20.70;101950.00;4963337;28;20053;-77
2023/08/11 08:35:50;;;;;;;0.82;0.30;;;;;;;31.58;21.67;101944.88;4983298;28;20065;-76
2023/08/11 08:38:18;;;;;;;1.10;0.52;;;;;;;29.88;22.70;101949.13;4992530;28;20145;-78
2023/08/11 08:40:44;;;;;;;1.17;0.50;;;;;;;30.53;22.56;101950.25;4962088;28;20097;-78
2023/08/11 08:43:10;;;;;;;2.00;0.88;;;;;;;31.15;22.56;101947.03;4949305;28;20057;-76
2023/08/11 08:45:38;;;;;;;1.35;0.50;;;;;;;32.35;20.83;101953.06;4965723;28;20033;-75
2023/08/11 08:48:09;;;;;;;3.67;0.63;;;;;;;31.99;21.86;101953.66;4980511;28;20183;-77
2023/08/11 08:50:36;;;;;;;3.05;0.50;;;;;;;31.99;20.69;101950.09;4980537;28;20037;-76
2023/08/11 08:53:02;;;;;;;1.90;0.35;;;;;;;31.27;21.68;101950.19;4978570;28;20480;-78
2023/08/11 08:55:28;;;;;;;1.10;0.35;;;;;;;29.69;23.52;101954.78;4975957;28;20032;-78
2023/08/11 08:57:54;;;;;;;1.90;0.30;;;;;;;31.00;22.85;101945.03;4977138;28;20511;-79
2023/08/11 09:00:20;;;;;;;3.15;0.45;;;;;;;30.18;22.81;101944.19;4993154;28;20034;-77
2023/08/11 09:02:45;;;;;;;2.65;0.30;;;;;;;30.63;22.13;101939.34;4994187;28;20049;-78
2023/08/11 09:05:17;;;;;;;0.70;0.30;;;;;;;30.75;22.68;101936.09;4994089;28;20034;-77
2023/08/11 09:07:46;;;;;;;0.82;0.30;;;;;;;30.45;23.51;101939.47;4960017;28;20559;-76
2023/08/11 09:10:11;;;;;;;4.05;0.73;;;;;;;30.42;23.35;101942.50;4995527;28;20030;-77
2023/08/11 09:12:37;;;;;;;1.10;0.40;;;;;;;30.21;23.30;101935.75;4977062;28;20120;-76
2023/08/11 09:15:08;;;;;;;1.58;0.40;;;;;;;29.82;24.13;101932.75;4982236;28;20057;-75
2023/08/11 09:17:38;;;;;;;1.17;0.32;;;;;;;29.86;23.82;101934.97;4975962;28;20107;-78
2023/08/11 09:20:04;;;;;;;6.05;0.40;;;;;;;28.72;25.03;101935.16;4986127;28;20140;-76
2023/08/11 09:22:32;;;;;;;2.25;0.47;;;;;;;27.31;26.93;101944.47;4978660;28;20689;-76
2023/08/11 09:25:01;;;;;;;2.92;1.02;;;;;;;27.48;26.20;101934.81;4977161;28;20060;-76
2023/08/11 09:27:29;;;;;;;1.60;0.30;;;;;;;27.85;26.45;101939.31;4949791;28;20434;-76
2023/08/11 09:29:55;;;;;;;2.28;0.60;;;;;;;26.58;27.50;101934.31;4972768;28;20044;-76
2023/08/11 09:32:22;;;;;;;1.17;0.50;;;;;;;26.43;29.10;101944.56;4978209;28;20058;-79
2023/08/11 09:34:48;;;;;;;2.22;0.63;;;;;;;26.68;28.72;101942.31;4994137;28;20034;-77
2023/08/11 09:37:17;;;;;;;1.38;0.40;;;;;;;27.73;28.59;101949.41;4977866;28;20045;-78
2023/08/11 09:39:42;;;;;;;0.65;0.32;;;;;;;28.24;27.65;101945.31;4979040;28;20484;-77
2023/08/11 09:42:15;;;;;;;1.80;0.50;;;;;;;27.66;27.48;101941.09;4976830;28;20036;-77
2023/08/11 09:44:42;;;;;;;1.60;0.50;;;;;;;27.29;27.93;101938.41;4991402;28;20500;-76
2023/08/11 09:47:11;;;;;;;1.20;0.60;;;;;;;26.93;27.87;101940.88;4978985;28;20067;-77
2023/08/11 09:49:36;;;;;;;0.80;0.47;;;;;;;27.56;29.22;101931.38;4959643;28;20061;-76
2023/08/11 09:52:04;;;;;;;1.58;0.28;;;;;;;28.24;26.86;101934.56;4984857;28;20033;-78
2023/08/11 09:54:36;;;;;;;1.48;0.65;;;;;;;26.75;28.24;101939.91;4976004;28;20041;-76
2023/08/11 09:57:03;;;;;;;2.67;0.47;;;;;;;27.44;27.98;101942.31;4994201;28;20123;-77
2023/08/11 09:59:29;;;;;;;2.22;0.30;;;;;;;27.70;27.00;101941.66;4992995;28;20037;-77
2023/08/11 10:01:58;;;;;;;3.72;0.85;;;;;;;27.88;26.99;101937.19;4972973;28;20040;-78
2023/08/11 10:04:39;;;;;;;0.73;0.30;;;;;;;28.03;27.02;101944.72;4977182;28;20054;-77
2023/08/11 10:07:13;;;;;;;2.90;0.50;;;;;;;27.05;27.29;101939.72;4932804;28;20176;-77
2023/08/11 10:09:39;;;;;;;2.70;0.50;;;;;;;27.90;27.52;101935.19;4943508;28;20079;-78
2023/08/11 10:12:06;;;;;;;1.27;0.50;;;;;;;27.70;27.74;101938.97;4978080;28;20507;-77
2023/08/11 10:14:34;;;;;;;1.20;0.40;;;;;;;27.58;27.01;101930.22;4994341;28;20056;-78
2023/08/11 10:17:00;;;;;;;6.45;0.45;;;;;;;27.98;27.31;101931.72;4977361;28;20034;-77
2023/08/11 10:19:26;;;;;;;2.03;0.30;;;;;;;27.98;26.45;101929.03;4977000;28;20051;-75
2023/08/11 10:21:52;;;;;;;2.05;0.70;;;;;;;27.91;27.33;101931.50;4979789;28;20053;-75
2023/08/11 10:24:18;;;;;;;1.63;0.22;;;;;;;28.41;27.83;101927.50;4977952;28;20061;-77
2023/08/11 10:26:44;;;;;;;0.88;0.40;;;;;;;28.87;26.44;101922.00;4979490;28;20049;-76
2023/08/11 10:29:11;;;;;;;1.92;0.50;;;;;;;28.40;26.03;101919.59;4981943;28;20046;-76
2023/08/11 10:31:53;;;;;;;2.78;0.40;;;;;;;27.89;27.37;101921.91;4974249;28;20048;-79
2023/08/11 10:34:23;;;;;;;2.70;0.60;;;;;;;28.24;26.81;101923.81;4993013;28;20053;-79
2023/08/11 10:36:50;;;;;;;0.95;0.50;;;;;;;28.78;27.31;101918.41;4996524;28;20021;-77
2023/08/11 10:39:18;;;;;;;1.42;0.40;;;;;;;29.60;26.00;101918.06;4979866;28;20069;-77
2023/08/11 10:41:45;;;;;;;0.80;0.43;;;;;;;28.92;25.30;101919.66;4973928;28;20034;-79
2023/08/11 10:44:11;;;;;;;1.75;0.60;;;;;;;28.29;26.13;101923.34;4974847;28;20042;-77
2023/08/11 10:46:36;;;;;;;2.75;0.63;;;;;;;28.17;27.63;101920.03;4974017;28;20054;-77
2023/08/11 10:49:07;;;;;;;2.88;0.85;;;;;;;27.83;27.12;101915.31;4992238;28;20041;-77
2023/08/11 10:51:35;;;;;;;1.63;0.40;;;;;;;27.72;27.63;101916.34;4977172;28;20168;-75
2023/08/11 10:54:17;;;;;;;2.10;0.68;;;;;;;27.69;27.44;101905.06;4975232;28;20041;-77
2023/08/11 10:56:44;;;;;;;1.80;0.50;;;;;;;27.91;26.59;101910.00;4961429;28;20501;-76
2023/08/11 10:59:27;;;;;;;1.77;0.40;;;;;;;28.39;27.28;101909.81;4961897;28;20103;-77
2023/08/11 11:01:53;;;;;;;1.05;0.30;;;;;;;29.01;26.96;101909.78;4995323;28;20033;-75
2023/08/11 11:04:21;;;;;;;0.88;0.40;;;;;;;28.32;27.00;101913.13;4976716;28;20058;-76
2023/08/11 11:06:49;;;;;;;1.77;0.30;;;;;;;27.78;27.78;101908.69;4979181;28;20046;-76
2023/08/11 11:09:18;;;;;;;2.45;0.30;;;;;;;27.92;27.52;101906.34;4976952;28;20101;-78
2023/08/11 11:11:44;;;;;;;0.95;0.40;;;;;;;27.56;27.58;101902.69;4961150;28;20117;-79
2023/08/11 11:14:12;;;;;;;3.58;0.50;;;;;;;27.43;27.79;101899.50;4977829;28;20038;-76
2023/08/11 11:16:38;;;;;;;1.85;0.73;;;;;;;28.47;27.16;101904.50;4959023;28;20125;-76
2023/08/11 11:19:05;;;;;;;2.65;0.47;;;;;;;28.75;26.70;101898.03;4981024;28;20277;-75
2023/08/11 11:21:33;;;;;;;1.88;0.70;;;;;;;29.03;25.97;101897.88;4987655;28;20218;-77
2023/08/11 11:23:58;;;;;;;1.08;0.70;;;;;;;28.62;25.20;101900.28;4993100;28;20104;-76
2023/08/11 11:26:26;;;;;;;1.25;0.55;;;;;;;28.33;26.21;101903.22;4978065;28;20049;-79
2023/08/11 11:28:53;;;;;;;1.55;0.40;;;;;;;27.94;26.92;101895.41;4979387;28;20038;-78